sensor_id;sensor_type;location;lat;lon;timestamp;temperature;humidity
35085;SHT85;21267;51.032;6.998;2023-04-22T00:11:57;9.90;94.25
35085;SHT85;21267;51.032;6.998;2023-04-22T00:14:24;9.84;94.15
35085;SHT85;21267;51.032;6.998;2023-04-22T00:16:51;9.92;94.10
35085;SHT85;21267;51.032;6.998;2023-04-22T00:19:18;9.82;94.19
35085;SHT85;21267;51.032;6.998;2023-04-22T00:21:45;9.64;94.33
35085;SHT85;21267;51.032;6.998;2023-04-22T00:24:12;9.54;94.64
35085;SHT85;21267;51.032;6.998;2023-04-22T00:26:39;9.51;94.62
35085;SHT85;21267;51.032;6.998;2023-04-22T00:29:06;9.46;94.70
35085;SHT85;21267;51.032;6.998;2023-04-22T00:31:33;9.53;94.46
35085;SHT85;21267;51.032;6.998;2023-04-22T00:33:59;9.44;94.33
35085;SHT85;21267;51.032;6.998;2023-04-22T00:36:26;9.51;94.27
35085;SHT85;21267;51.032;6.998;2023-04-22T00:38:53;9.50;93.82
35085;SHT85;21267;51.032;6.998;2023-04-22T00:41:21;9.40;94.49
35085;SHT85;21267;51.032;6.998;2023-04-22T00:43:48;9.36;95.10
35085;SHT85;21267;51.032;6.998;2023-04-22T00:46:15;9.32;95.30
35085;SHT85;21267;51.032;6.998;2023-04-22T00:48:42;9.23;95.41
35085;SHT85;21267;51.032;6.998;2023-04-22T00:51:09;9.29;95.38
35085;SHT85;21267;51.032;6.998;2023-04-22T00:53:35;9.40;94.96
35085;SHT85;21267;51.032;6.998;2023-04-22T00:56:03;9.30;95.15
35085;SHT85;21267;51.032;6.998;2023-04-22T00:58:30;9.26;94.85
35085;SHT85;21267;51.032;6.998;2023-04-22T01:00:57;9.36;94.61
35085;SHT85;21267;51.032;6.998;2023-04-22T01:03:25;9.24;94.70
35085;SHT85;21267;51.032;6.998;2023-04-22T01:05:55;9.34;94.23
35085;SHT85;21267;51.032;6.998;2023-04-22T01:08:23;9.26;94.49
35085;SHT85;21267;51.032;6.998;2023-04-22T01:10:52;9.18;94.75
35085;SHT85;21267;51.032;6.998;2023-04-22T01:13:18;9.24;94.39
35085;SHT85;21267;51.032;6.998;2023-04-22T01:15:46;9.23;94.65
35085;SHT85;21267;51.032;6.998;2023-04-22T01:18:13;9.43;94.39
35085;SHT85;21267;51.032;6.998;2023-04-22T01:20:40;9.53;94.07
35085;SHT85;21267;51.032;6.998;2023-04-22T01:23:16;9.55;93.64
35085;SHT85;21267;51.032;6.998;2023-04-22T01:25:43;9.57;93.54
35085;SHT85;21267;51.032;6.998;2023-04-22T01:28:10;9.60;93.63
35085;SHT85;21267;51.032;6.998;2023-04-22T01:30:37;9.41;93.55
35085;SHT85;21267;51.032;6.998;2023-04-22T01:33:05;9.53;93.52
35085;SHT85;21267;51.032;6.998;2023-04-22T01:35:32;9.47;93.41
35085;SHT85;21267;51.032;6.998;2023-04-22T01:38:04;9.43;93.42
35085;SHT85;21267;51.032;6.998;2023-04-22T01:40:31;9.55;93.28
35085;SHT85;21267;51.032;6.998;2023-04-22T01:42:58;9.48;92.88
35085;SHT85;21267;51.032;6.998;2023-04-22T01:45:26;9.43;93.29
35085;SHT85;21267;51.032;6.998;2023-04-22T01:47:54;9.50;93.45
35085;SHT85;21267;51.032;6.998;2023-04-22T01:50:21;9.40;93.30
35085;SHT85;21267;51.032;6.998;2023-04-22T01:52:49;9.41;93.83
35085;SHT85;21267;51.032;6.998;2023-04-22T01:55:16;9.36;93.72
35085;SHT85;21267;51.032;6.998;2023-04-22T01:57:43;9.34;93.98
35085;SHT85;21267;51.032;6.998;2023-04-22T02:00:10;9.41;93.81
35085;SHT85;21267;51.032;6.998;2023-04-22T02:02:37;9.33;93.69
35085;SHT85;21267;51.032;6.998;2023-04-22T02:05:06;9.37;93.75
35085;SHT85;21267;51.032;6.998;2023-04-22T02:07:33;9.57;93.24
35085;SHT85;21267;51.032;6.998;2023-04-22T02:10:05;9.57;93.04
35085;SHT85;21267;51.032;6.998;2023-04-22T02:12:32;9.51;92.98
35085;SHT85;21267;51.032;6.998;2023-04-22T02:14:59;9.57;92.78
35085;SHT85;21267;51.032;6.998;2023-04-22T02:17:25;9.60;92.58
35085;SHT85;21267;51.032;6.998;2023-04-22T02:19:53;9.77;92.49
35085;SHT85;21267;51.032;6.998;2023-04-22T02:22:21;9.70;92.48
35085;SHT85;21267;51.032;6.998;2023-04-22T02:24:49;9.54;93.02
35085;SHT85;21267;51.032;6.998;2023-04-22T02:27:15;9.46;93.67
35085;SHT85;21267;51.032;6.998;2023-04-22T02:29:42;9.64;93.20
35085;SHT85;21267;51.032;6.998;2023-04-22T02:32:09;9.44;93.57
35085;SHT85;21267;51.032;6.998;2023-04-22T02:34:36;9.53;93.58
35085;SHT85;21267;51.032;6.998;2023-04-22T02:37:02;9.69;93.43
35085;SHT85;21267;51.032;6.998;2023-04-22T02:39:30;9.58;93.33
35085;SHT85;21267;51.032;6.998;2023-04-22T02:41:57;9.77;92.69
35085;SHT85;21267;51.032;6.998;2023-04-22T02:44:24;9.75;92.55
35085;SHT85;21267;51.032;6.998;2023-04-22T02:46:50;9.77;92.23
35085;SHT85;21267;51.032;6.998;2023-04-22T02:49:17;9.78;92.05
35085;SHT85;21267;51.032;6.998;2023-04-22T02:51:44;9.75;92.33
35085;SHT85;21267;51.032;6.998;2023-04-22T02:54:11;9.81;92.21
35085;SHT85;21267;51.032;6.998;2023-04-22T02:56:37;9.82;92.25
35085;SHT85;21267;51.032;6.998;2023-04-22T02:59:04;9.73;92.41
35085;SHT85;21267;51.032;6.998;2023-04-22T03:01:31;9.84;92.27
35085;SHT85;21267;51.032;6.998;2023-04-22T03:03:58;9.82;92.55
35085;SHT85;21267;51.032;6.998;2023-04-22T03:06:25;9.80;92.72
35085;SHT85;21267;51.032;6.998;2023-04-22T03:08:52;9.82;92.63
35085;SHT85;21267;51.032;6.998;2023-04-22T03:11:19;9.90;92.66
35085;SHT85;21267;51.032;6.998;2023-04-22T03:13:46;9.91;92.45
35085;SHT85;21267;51.032;6.998;2023-04-22T03:16:13;9.95;92.29
35085;SHT85;21267;51.032;6.998;2023-04-22T03:18:39;9.88;92.60
35085;SHT85;21267;51.032;6.998;2023-04-22T03:21:06;9.82;92.84
35085;SHT85;21267;51.032;6.998;2023-04-22T03:23:34;9.94;92.64
35085;SHT85;21267;51.032;6.998;2023-04-22T03:26:01;9.91;93.04
35085;SHT85;21267;51.032;6.998;2023-04-22T03:28:27;9.82;92.91
35085;SHT85;21267;51.032;6.998;2023-04-22T03:30:54;9.82;92.96
35085;SHT85;21267;51.032;6.998;2023-04-22T03:33:21;9.75;93.35
35085;SHT85;21267;51.032;6.998;2023-04-22T03:35:48;9.81;93.07
35085;SHT85;21267;51.032;6.998;2023-04-22T03:38:15;9.90;92.50
35085;SHT85;21267;51.032;6.998;2023-04-22T03:40:42;9.98;92.16
35085;SHT85;21267;51.032;6.998;2023-04-22T03:43:09;10.06;91.88
35085;SHT85;21267;51.032;6.998;2023-04-22T03:45:36;10.08;91.95
35085;SHT85;21267;51.032;6.998;2023-04-22T03:48:03;10.12;92.16
35085;SHT85;21267;51.032;6.998;2023-04-22T03:50:29;10.01;92.37
35085;SHT85;21267;51.032;6.998;2023-04-22T03:52:57;10.06;92.11
35085;SHT85;21267;51.032;6.998;2023-04-22T03:55:24;10.11;91.67
35085;SHT85;21267;51.032;6.998;2023-04-22T03:57:51;10.23;91.95
35085;SHT85;21267;51.032;6.998;2023-04-22T04:00:17;10.22;91.97
35085;SHT85;21267;51.032;6.998;2023-04-22T04:02:44;10.08;92.57
35085;SHT85;21267;51.032;6.998;2023-04-22T04:05:11;9.99;92.95
35085;SHT85;21267;51.032;6.998;2023-04-22T04:07:38;10.18;92.23
35085;SHT85;21267;51.032;6.998;2023-04-22T04:10:05;10.09;92.42
35085;SHT85;21267;51.032;6.998;2023-04-22T04:12:32;10.18;92.19
35085;SHT85;21267;51.032;6.998;2023-04-22T04:14:59;10.28;91.93
35085;SHT85;21267;51.032;6.998;2023-04-22T04:17:26;10.29;91.74
35085;SHT85;21267;51.032;6.998;2023-04-22T04:19:54;10.33;91.29
35085;SHT85;21267;51.032;6.998;2023-04-22T04:22:21;10.36;91.20
35085;SHT85;21267;51.032;6.998;2023-04-22T04:24:48;10.45;90.90
35085;SHT85;21267;51.032;6.998;2023-04-22T04:27:15;10.49;90.63
35085;SHT85;21267;51.032;6.998;2023-04-22T04:29:42;10.50;90.42
35085;SHT85;21267;51.032;6.998;2023-04-22T04:32:08;10.61;90.29
35085;SHT85;21267;51.032;6.998;2023-04-22T04:34:35;10.66;89.78
35085;SHT85;21267;51.032;6.998;2023-04-22T04:37:05;10.74;89.23
35085;SHT85;21267;51.032;6.998;2023-04-22T04:39:32;10.70;89.54
35085;SHT85;21267;51.032;6.998;2023-04-22T04:41:59;10.73;89.21
35085;SHT85;21267;51.032;6.998;2023-04-22T04:44:26;10.84;88.64
35085;SHT85;21267;51.032;6.998;2023-04-22T04:46:52;10.90;88.53
35085;SHT85;21267;51.032;6.998;2023-04-22T04:49:20;10.91;88.24
35085;SHT85;21267;51.032;6.998;2023-04-22T04:51:48;10.94;88.09
35085;SHT85;21267;51.032;6.998;2023-04-22T04:54:15;11.08;87.38
35085;SHT85;21267;51.032;6.998;2023-04-22T04:56:42;11.15;86.70
35085;SHT85;21267;51.032;6.998;2023-04-22T04:59:09;11.21;86.71
35085;SHT85;21267;51.032;6.998;2023-04-22T05:01:35;11.25;86.30
35085;SHT85;21267;51.032;6.998;2023-04-22T05:04:02;11.29;86.12
35085;SHT85;21267;51.032;6.998;2023-04-22T05:06:29;11.31;85.83
35085;SHT85;21267;51.032;6.998;2023-04-22T05:08:58;11.36;85.69
35085;SHT85;21267;51.032;6.998;2023-04-22T05:11:25;11.38;85.74
35085;SHT85;21267;51.032;6.998;2023-04-22T05:13:52;11.34;85.86
35085;SHT85;21267;51.032;6.998;2023-04-22T05:16:18;11.41;85.51
35085;SHT85;21267;51.032;6.998;2023-04-22T05:18:45;11.43;85.52
35085;SHT85;21267;51.032;6.998;2023-04-22T05:21:12;11.46;85.49
35085;SHT85;21267;51.032;6.998;2023-04-22T05:23:39;11.50;85.22
35085;SHT85;21267;51.032;6.998;2023-04-22T05:26:06;11.52;85.18
35085;SHT85;21267;51.032;6.998;2023-04-22T05:28:33;11.60;84.75
35085;SHT85;21267;51.032;6.998;2023-04-22T05:30:59;11.65;84.60
35085;SHT85;21267;51.032;6.998;2023-04-22T05:33:26;11.75;84.16
35085;SHT85;21267;51.032;6.998;2023-04-22T05:35:55;11.76;84.34
35085;SHT85;21267;51.032;6.998;2023-04-22T05:38:22;11.78;84.24
35085;SHT85;21267;51.032;6.998;2023-04-22T05:40:49;11.83;84.08
35085;SHT85;21267;51.032;6.998;2023-04-22T05:43:16;11.99;83.54
35085;SHT85;21267;51.032;6.998;2023-04-22T05:45:42;12.04;83.32
35085;SHT85;21267;51.032;6.998;2023-04-22T05:48:09;12.17;83.10
35085;SHT85;21267;51.032;6.998;2023-04-22T05:50:36;12.22;82.73
35085;SHT85;21267;51.032;6.998;2023-04-22T05:53:03;12.24;82.88
35085;SHT85;21267;51.032;6.998;2023-04-22T05:55:29;12.35;82.58
35085;SHT85;21267;51.032;6.998;2023-04-22T05:57:56;12.41;82.18
35085;SHT85;21267;51.032;6.998;2023-04-22T06:00:23;12.44;82.17
35085;SHT85;21267;51.032;6.998;2023-04-22T06:02:50;12.48;81.84
35085;SHT85;21267;51.032;6.998;2023-04-22T06:05:17;12.49;81.97
35085;SHT85;21267;51.032;6.998;2023-04-22T06:07:44;12.51;81.92
35085;SHT85;21267;51.032;6.998;2023-04-22T06:10:10;12.61;81.45
35085;SHT85;21267;51.032;6.998;2023-04-22T06:12:37;12.69;81.10
35085;SHT85;21267;51.032;6.998;2023-04-22T06:15:04;12.78;81.03
35085;SHT85;21267;51.032;6.998;2023-04-22T06:17:31;12.82;80.79
35085;SHT85;21267;51.032;6.998;2023-04-22T06:19:58;12.88;81.01
35085;SHT85;21267;51.032;6.998;2023-04-22T06:22:25;12.95;80.16
35085;SHT85;21267;51.032;6.998;2023-04-22T06:24:52;13.00;80.26
35085;SHT85;21267;51.032;6.998;2023-04-22T06:27:18;13.03;79.83
35085;SHT85;21267;51.032;6.998;2023-04-22T06:33:42;13.15;79.88
35085;SHT85;21267;51.032;6.998;2023-04-22T06:39:16;13.47;79.16
35085;SHT85;21267;51.032;6.998;2023-04-22T06:41:44;13.69;78.11
35085;SHT85;21267;51.032;6.998;2023-04-22T06:44:11;13.78;77.63
35085;SHT85;21267;51.032;6.998;2023-04-22T06:47:02;13.95;77.34
35085;SHT85;21267;51.032;6.998;2023-04-22T06:49:32;14.10;77.08
35085;SHT85;21267;51.032;6.998;2023-04-22T06:52:10;14.32;76.14
35085;SHT85;21267;51.032;6.998;2023-04-22T06:54:37;14.56;75.27
35085;SHT85;21267;51.032;6.998;2023-04-22T06:57:07;14.80;75.02
35085;SHT85;21267;51.032;6.998;2023-04-22T06:59:33;15.02;74.42
35085;SHT85;21267;51.032;6.998;2023-04-22T07:02:00;14.96;73.52
35085;SHT85;21267;51.032;6.998;2023-04-22T07:04:33;14.96;73.11
35085;SHT85;21267;51.032;6.998;2023-04-22T07:07:00;15.01;73.61
35085;SHT85;21267;51.032;6.998;2023-04-22T07:09:27;15.02;73.29
35085;SHT85;21267;51.032;6.998;2023-04-22T07:11:57;14.81;73.17
35085;SHT85;21267;51.032;6.998;2023-04-22T07:14:24;14.89;73.93
35085;SHT85;21267;51.032;6.998;2023-04-22T07:16:56;14.91;73.27
35085;SHT85;21267;51.032;6.998;2023-04-22T07:19:23;14.96;73.55
35085;SHT85;21267;51.032;6.998;2023-04-22T07:21:50;15.14;72.85
35085;SHT85;21267;51.032;6.998;2023-04-22T07:24:19;15.21;72.53
35085;SHT85;21267;51.032;6.998;2023-04-22T07:26:46;15.42;72.26
35085;SHT85;21267;51.032;6.998;2023-04-22T07:29:12;15.60;71.01
35085;SHT85;21267;51.032;6.998;2023-04-22T07:31:39;15.63;70.53
35085;SHT85;21267;51.032;6.998;2023-04-22T07:34:06;15.77;70.60
35085;SHT85;21267;51.032;6.998;2023-04-22T07:36:35;15.83;69.44
35085;SHT85;21267;51.032;6.998;2023-04-22T07:39:02;15.98;68.86
35085;SHT85;21267;51.032;6.998;2023-04-22T07:41:28;16.58;67.86
35085;SHT85;21267;51.032;6.998;2023-04-22T07:43:55;16.97;66.71
35085;SHT85;21267;51.032;6.998;2023-04-22T07:46:25;17.27;65.37
35085;SHT85;21267;51.032;6.998;2023-04-22T07:48:54;17.66;64.99
35085;SHT85;21267;51.032;6.998;2023-04-22T07:51:24;17.83;64.43
35085;SHT85;21267;51.032;6.998;2023-04-22T07:53:56;17.68;64.56
35085;SHT85;21267;51.032;6.998;2023-04-22T07:56:23;17.87;64.18
35085;SHT85;21267;51.032;6.998;2023-04-22T07:58:51;17.85;63.68
35085;SHT85;21267;51.032;6.998;2023-04-22T08:01:18;17.82;64.17
35085;SHT85;21267;51.032;6.998;2023-04-22T08:03:45;18.10;63.54
35085;SHT85;21267;51.032;6.998;2023-04-22T08:06:12;17.92;63.21
35085;SHT85;21267;51.032;6.998;2023-04-22T08:08:38;18.08;62.24
35085;SHT85;21267;51.032;6.998;2023-04-22T08:11:06;18.61;62.36
35085;SHT85;21267;51.032;6.998;2023-04-22T08:13:32;18.26;61.79
35085;SHT85;21267;51.032;6.998;2023-04-22T08:16:00;18.36;61.89
35085;SHT85;21267;51.032;6.998;2023-04-22T08:18:28;18.17;62.74
35085;SHT85;21267;51.032;6.998;2023-04-22T08:20:55;18.57;61.75
35085;SHT85;21267;51.032;6.998;2023-04-22T08:23:22;18.61;62.17
35085;SHT85;21267;51.032;6.998;2023-04-22T08:25:48;18.58;60.97
35085;SHT85;21267;51.032;6.998;2023-04-22T08:28:15;18.44;60.94
35085;SHT85;21267;51.032;6.998;2023-04-22T08:30:42;19.01;60.04
35085;SHT85;21267;51.032;6.998;2023-04-22T08:33:09;19.30;59.01
35085;SHT85;21267;51.032;6.998;2023-04-22T08:35:36;19.32;58.36
35085;SHT85;21267;51.032;6.998;2023-04-22T08:38:03;18.81;57.88
35085;SHT85;21267;51.032;6.998;2023-04-22T08:40:29;18.63;59.01
35085;SHT85;21267;51.032;6.998;2023-04-22T08:42:56;18.45;59.40
35085;SHT85;21267;51.032;6.998;2023-04-22T08:45:23;18.29;59.47
35085;SHT85;21267;51.032;6.998;2023-04-22T08:47:51;18.34;60.02
35085;SHT85;21267;51.032;6.998;2023-04-22T08:50:20;18.43;59.53
35085;SHT85;21267;51.032;6.998;2023-04-22T08:52:47;18.45;59.23
35085;SHT85;21267;51.032;6.998;2023-04-22T08:55:14;18.67;58.95
35085;SHT85;21267;51.032;6.998;2023-04-22T08:57:41;18.75;58.75
35085;SHT85;21267;51.032;6.998;2023-04-22T09:00:08;19.29;57.69
35085;SHT85;21267;51.032;6.998;2023-04-22T09:02:36;19.46;57.23
35085;SHT85;21267;51.032;6.998;2023-04-22T09:05:05;19.54;56.74
35085;SHT85;21267;51.032;6.998;2023-04-22T09:07:31;19.20;56.81
35085;SHT85;21267;51.032;6.998;2023-04-22T09:09:58;19.50;57.21
35085;SHT85;21267;51.032;6.998;2023-04-22T09:12:25;20.11;56.29
35085;SHT85;21267;51.032;6.998;2023-04-22T09:14:52;20.01;56.23
35085;SHT85;21267;51.032;6.998;2023-04-22T09:17:31;20.25;55.78
35085;SHT85;21267;51.032;6.998;2023-04-22T09:19:59;20.59;55.05
35085;SHT85;21267;51.032;6.998;2023-04-22T09:22:28;20.75;54.39
35085;SHT85;21267;51.032;6.998;2023-04-22T09:24:55;21.23;53.66
35085;SHT85;21267;51.032;6.998;2023-04-22T09:27:23;21.14;53.60
35085;SHT85;21267;51.032;6.998;2023-04-22T09:29:50;20.60;54.61
35085;SHT85;21267;51.032;6.998;2023-04-22T09:32:18;21.13;53.77
35085;SHT85;21267;51.032;6.998;2023-04-22T09:34:50;21.56;53.53
35085;SHT85;21267;51.032;6.998;2023-04-22T09:37:24;21.78;52.84
35085;SHT85;21267;51.032;6.998;2023-04-22T09:40:01;21.52;52.67
35085;SHT85;21267;51.032;6.998;2023-04-22T09:42:27;21.72;53.05
35085;SHT85;21267;51.032;6.998;2023-04-22T09:44:54;21.69;53.07
35085;SHT85;21267;51.032;6.998;2023-04-22T09:47:21;21.96;52.86
35085;SHT85;21267;51.032;6.998;2023-04-22T09:49:49;21.65;52.50
35085;SHT85;21267;51.032;6.998;2023-04-22T09:52:23;21.30;53.05
35085;SHT85;21267;51.032;6.998;2023-04-22T09:54:52;21.08;54.10
35085;SHT85;21267;51.032;6.998;2023-04-22T09:57:20;21.92;53.05
35085;SHT85;21267;51.032;6.998;2023-04-22T09:59:50;21.45;52.49
35085;SHT85;21267;51.032;6.998;2023-04-22T10:02:27;21.42;53.10
35085;SHT85;21267;51.032;6.998;2023-04-22T10:04:55;21.64;53.00
35085;SHT85;21267;51.032;6.998;2023-04-22T10:07:23;21.95;53.07
35085;SHT85;21267;51.032;6.998;2023-04-22T10:09:50;22.30;51.95
35085;SHT85;21267;51.032;6.998;2023-04-22T10:12:16;22.00;51.73
35085;SHT85;21267;51.032;6.998;2023-04-22T10:14:58;22.68;50.76
35085;SHT85;21267;51.032;6.998;2023-04-22T10:17:27;22.64;51.19
35085;SHT85;21267;51.032;6.998;2023-04-22T10:19:55;22.45;50.94
35085;SHT85;21267;51.032;6.998;2023-04-22T10:22:22;21.62;52.27
35085;SHT85;21267;51.032;6.998;2023-04-22T10:24:49;21.28;53.20
35085;SHT85;21267;51.032;6.998;2023-04-22T10:27:20;21.38;53.55
35085;SHT85;21267;51.032;6.998;2023-04-22T10:29:48;21.55;53.65
35085;SHT85;21267;51.032;6.998;2023-04-22T10:34:48;21.30;54.25
35085;SHT85;21267;51.032;6.998;2023-04-22T10:37:19;22.03;53.50
35085;SHT85;21267;51.032;6.998;2023-04-22T10:40:05;22.87;51.40
35085;SHT85;21267;51.032;6.998;2023-04-22T10:42:40;22.92;50.66
35085;SHT85;21267;51.032;6.998;2023-04-22T10:45:11;23.58;50.28
35085;SHT85;21267;51.032;6.998;2023-04-22T10:47:38;23.40;50.69
35085;SHT85;21267;51.032;6.998;2023-04-22T10:50:12;23.58;49.64
35085;SHT85;21267;51.032;6.998;2023-04-22T10:52:41;24.66;48.40
35085;SHT85;21267;51.032;6.998;2023-04-22T10:55:08;24.51;48.83
35085;SHT85;21267;51.032;6.998;2023-04-22T10:57:41;24.00;48.20
35085;SHT85;21267;51.032;6.998;2023-04-22T11:00:28;23.56;47.59
35085;SHT85;21267;51.032;6.998;2023-04-22T11:03:13;23.93;47.90
35085;SHT85;21267;51.032;6.998;2023-04-22T11:05:41;22.98;48.85
35085;SHT85;21267;51.032;6.998;2023-04-22T11:08:12;22.54;49.89
35085;SHT85;21267;51.032;6.998;2023-04-22T11:10:44;22.27;50.89
35085;SHT85;21267;51.032;6.998;2023-04-22T11:13:19;21.58;51.25
35085;SHT85;21267;51.032;6.998;2023-04-22T11:15:48;21.41;51.93
35085;SHT85;21267;51.032;6.998;2023-04-22T11:18:24;21.30;51.68
35085;SHT85;21267;51.032;6.998;2023-04-22T11:20:53;21.31;52.14
35085;SHT85;21267;51.032;6.998;2023-04-22T11:23:27;21.18;52.35
35085;SHT85;21267;51.032;6.998;2023-04-22T11:25:59;21.28;52.34
35085;SHT85;21267;51.032;6.998;2023-04-22T11:28:26;21.04;52.69
35085;SHT85;21267;51.032;6.998;2023-04-22T11:31:01;20.81;52.97
35085;SHT85;21267;51.032;6.998;2023-04-22T11:33:42;21.06;53.16
35085;SHT85;21267;51.032;6.998;2023-04-22T11:36:10;20.83;53.50
35085;SHT85;21267;51.032;6.998;2023-04-22T11:38:54;20.49;54.39
35085;SHT85;21267;51.032;6.998;2023-04-22T11:41:35;20.49;54.71
35085;SHT85;21267;51.032;6.998;2023-04-22T11:44:02;20.52;54.70
35085;SHT85;21267;51.032;6.998;2023-04-22T11:46:29;20.76;54.58
35085;SHT85;21267;51.032;6.998;2023-04-22T11:49:15;20.96;54.57
35085;SHT85;21267;51.032;6.998;2023-04-22T11:51:55;20.55;54.64
35085;SHT85;21267;51.032;6.998;2023-04-22T11:54:31;20.60;54.75
35085;SHT85;21267;51.032;6.998;2023-04-22T11:57:07;21.37;53.23
35085;SHT85;21267;51.032;6.998;2023-04-22T11:59:34;21.71;52.65
35085;SHT85;21267;51.032;6.998;2023-04-22T12:02:04;22.32;52.10
35085;SHT85;21267;51.032;6.998;2023-04-22T12:04:37;22.40;51.58
35085;SHT85;21267;51.032;6.998;2023-04-22T12:07:05;22.85;51.05
35085;SHT85;21267;51.032;6.998;2023-04-22T12:09:32;22.47;51.32
35085;SHT85;21267;51.032;6.998;2023-04-22T12:11:59;22.29;52.04
35085;SHT85;21267;51.032;6.998;2023-04-22T12:14:31;21.74;52.81
35085;SHT85;21267;51.032;6.998;2023-04-22T12:16:57;21.59;53.44
35085;SHT85;21267;51.032;6.998;2023-04-22T12:19:25;22.08;52.72
35085;SHT85;21267;51.032;6.998;2023-04-22T12:21:56;22.17;52.60
35085;SHT85;21267;51.032;6.998;2023-04-22T12:24:28;22.23;52.69
35085;SHT85;21267;51.032;6.998;2023-04-22T12:26:55;22.08;52.81
35085;SHT85;21267;51.032;6.998;2023-04-22T12:29:32;22.40;52.51
35085;SHT85;21267;51.032;6.998;2023-04-22T12:31:59;22.04;53.62
35085;SHT85;21267;51.032;6.998;2023-04-22T12:34:27;21.76;54.26
35085;SHT85;21267;51.032;6.998;2023-04-22T12:36:54;21.86;54.43
35085;SHT85;21267;51.032;6.998;2023-04-22T12:39:21;22.03;54.09
35085;SHT85;21267;51.032;6.998;2023-04-22T12:41:48;22.04;53.76
35085;SHT85;21267;51.032;6.998;2023-04-22T12:44:16;22.20;53.73
35085;SHT85;21267;51.032;6.998;2023-04-22T12:46:43;21.76;54.34
35085;SHT85;21267;51.032;6.998;2023-04-22T12:49:09;21.89;54.12
35085;SHT85;21267;51.032;6.998;2023-04-22T12:51:36;21.99;54.27
35085;SHT85;21267;51.032;6.998;2023-04-22T12:54:03;22.00;54.28
35085;SHT85;21267;51.032;6.998;2023-04-22T12:56:29;22.13;54.49
35085;SHT85;21267;51.032;6.998;2023-04-22T12:58:56;22.10;54.44
35085;SHT85;21267;51.032;6.998;2023-04-22T13:01:29;22.12;54.52
35085;SHT85;21267;51.032;6.998;2023-04-22T13:03:56;21.93;55.31
35085;SHT85;21267;51.032;6.998;2023-04-22T13:06:23;21.76;55.72
35085;SHT85;21267;51.032;6.998;2023-04-22T13:08:49;21.66;55.46
35085;SHT85;21267;51.032;6.998;2023-04-22T13:11:16;21.64;54.79
35085;SHT85;21267;51.032;6.998;2023-04-22T13:13:43;21.68;55.14
35085;SHT85;21267;51.032;6.998;2023-04-22T13:16:10;21.66;55.51
35085;SHT85;21267;51.032;6.998;2023-04-22T13:18:36;21.69;55.85
35085;SHT85;21267;51.032;6.998;2023-04-22T13:21:03;21.58;56.56
35085;SHT85;21267;51.032;6.998;2023-04-22T13:23:31;21.38;56.91
35085;SHT85;21267;51.032;6.998;2023-04-22T13:25:59;21.04;57.20
35085;SHT85;21267;51.032;6.998;2023-04-22T13:28:25;21.00;57.55
35085;SHT85;21267;51.032;6.998;2023-04-22T13:30:53;21.14;57.69
35085;SHT85;21267;51.032;6.998;2023-04-22T13:33:20;21.18;57.65
35085;SHT85;21267;51.032;6.998;2023-04-22T13:35:47;21.10;58.19
35085;SHT85;21267;51.032;6.998;2023-04-22T13:38:14;20.81;59.09
35085;SHT85;21267;51.032;6.998;2023-04-22T13:40:41;20.63;59.39
35085;SHT85;21267;51.032;6.998;2023-04-22T13:43:08;20.09;61.16
35085;SHT85;21267;51.032;6.998;2023-04-22T13:45:35;19.63;63.42
35085;SHT85;21267;51.032;6.998;2023-04-22T13:48:02;19.28;64.00
35085;SHT85;21267;51.032;6.998;2023-04-22T13:50:29;19.02;65.44
35085;SHT85;21267;51.032;6.998;2023-04-22T13:52:55;18.65;67.61
35085;SHT85;21267;51.032;6.998;2023-04-22T13:55:22;18.47;68.93
35085;SHT85;21267;51.032;6.998;2023-04-22T13:57:49;18.19;70.42
35085;SHT85;21267;51.032;6.998;2023-04-22T14:00:17;17.99;72.10
35085;SHT85;21267;51.032;6.998;2023-04-22T14:02:46;17.76;73.34
35085;SHT85;21267;51.032;6.998;2023-04-22T14:05:14;17.59;74.00
35085;SHT85;21267;51.032;6.998;2023-04-22T14:07:41;17.34;76.09
35085;SHT85;21267;51.032;6.998;2023-04-22T14:10:08;17.30;75.85
35085;SHT85;21267;51.032;6.998;2023-04-22T14:12:40;17.23;75.51
35085;SHT85;21267;51.032;6.998;2023-04-22T14:15:09;17.02;76.64
35085;SHT85;21267;51.032;6.998;2023-04-22T14:17:37;16.93;76.61
35085;SHT85;21267;51.032;6.998;2023-04-22T14:20:17;16.89;78.30
35085;SHT85;21267;51.032;6.998;2023-04-22T14:22:44;16.96;76.81
35085;SHT85;21267;51.032;6.998;2023-04-22T14:25:26;17.02;76.75
35085;SHT85;21267;51.032;6.998;2023-04-22T14:27:53;17.10;77.16
35085;SHT85;21267;51.032;6.998;2023-04-22T14:30:19;17.30;77.31
35085;SHT85;21267;51.032;6.998;2023-04-22T14:32:47;17.44;77.79
35085;SHT85;21267;51.032;6.998;2023-04-22T14:35:28;17.51;77.00
35085;SHT85;21267;51.032;6.998;2023-04-22T14:38:03;17.57;77.70
35085;SHT85;21267;51.032;6.998;2023-04-22T14:40:35;17.52;76.94
35085;SHT85;21267;51.032;6.998;2023-04-22T14:43:04;17.52;76.83
35085;SHT85;21267;51.032;6.998;2023-04-22T14:45:31;17.57;75.41
35085;SHT85;21267;51.032;6.998;2023-04-22T14:48:07;17.59;76.36
35085;SHT85;21267;51.032;6.998;2023-04-22T14:50:34;17.69;73.76
35085;SHT85;21267;51.032;6.998;2023-04-22T14:53:01;17.81;74.10
35085;SHT85;21267;51.032;6.998;2023-04-22T14:55:37;17.99;71.11
35085;SHT85;21267;51.032;6.998;2023-04-22T14:58:04;18.08;72.12
35085;SHT85;21267;51.032;6.998;2023-04-22T15:00:44;18.24;70.14
35085;SHT85;21267;51.032;6.998;2023-04-22T15:03:11;18.31;69.06
35085;SHT85;21267;51.032;6.998;2023-04-22T15:05:38;18.34;68.52
35085;SHT85;21267;51.032;6.998;2023-04-22T15:08:04;18.34;68.60
35085;SHT85;21267;51.032;6.998;2023-04-22T15:10:32;18.26;70.03
35085;SHT85;21267;51.032;6.998;2023-04-22T15:13:01;18.00;71.79
35085;SHT85;21267;51.032;6.998;2023-04-22T15:15:31;17.81;72.26
35085;SHT85;21267;51.032;6.998;2023-04-22T15:17:58;17.58;74.36
35085;SHT85;21267;51.032;6.998;2023-04-22T15:20:25;17.47;74.86
35085;SHT85;21267;51.032;6.998;2023-04-22T15:22:51;17.37;75.18
35085;SHT85;21267;51.032;6.998;2023-04-22T15:25:18;17.34;74.43
35085;SHT85;21267;51.032;6.998;2023-04-22T15:27:45;17.26;74.25
35085;SHT85;21267;51.032;6.998;2023-04-22T15:30:13;17.18;75.19
35085;SHT85;21267;51.032;6.998;2023-04-22T15:32:40;17.17;74.44
35085;SHT85;21267;51.032;6.998;2023-04-22T15:35:07;17.03;75.58
35085;SHT85;21267;51.032;6.998;2023-04-22T15:37:34;16.94;75.83
35085;SHT85;21267;51.032;6.998;2023-04-22T15:40:01;16.77;76.80
35085;SHT85;21267;51.032;6.998;2023-04-22T15:42:29;16.76;76.42
35085;SHT85;21267;51.032;6.998;2023-04-22T15:44:55;16.63;78.28
35085;SHT85;21267;51.032;6.998;2023-04-22T15:47:22;16.63;78.19
35085;SHT85;21267;51.032;6.998;2023-04-22T15:49:49;16.76;77.92
35085;SHT85;21267;51.032;6.998;2023-04-22T15:52:16;16.90;76.27
35085;SHT85;21267;51.032;6.998;2023-04-22T15:54:44;16.92;76.10
35085;SHT85;21267;51.032;6.998;2023-04-22T15:57:12;16.86;77.08
35085;SHT85;21267;51.032;6.998;2023-04-22T15:59:42;16.97;76.30
35085;SHT85;21267;51.032;6.998;2023-04-22T16:02:09;17.02;75.68